Pagrindinis puslapis
METAR-TAF:

METAR-TAF

Oro uostai :

Uagadugu oro uostas

Uagadugu, Burkina Fasas

platuma: 12-21N, ilguma: 001-31W, Aukštis: 316 m

Dabartinis oras

Ataskaita buvo paskelbta 1 valandą ir 1 minutes, ne 15:00 UTC
Vėjas 3 kt iš Rytų/Pietryčių, svyruoja nuo Šiaurės/Šiaurės Rytų ir Pietų
Temperatūra 32°C
Drėgmė 52%
Slėgis 1010 hPa
Matomumas 10 km arba daugiau
Mažai debesys ne aukštis 2000 ft

METAR: DFFD 161500Z 11003KT 030V170 9999 FEW020 32/21 Q1010 NOSIG

Laikas: 16:01 (16:01 UTC)

Prognozė

Ataskaita buvo paskelbta 5 valandos ir 1 minutes, ne 11:00 UTC
Prognozė galioja nuo 16 metu 12 UTC su 17 metu 18 UTC
Vėjas 8 kt iš Pietų/Pietvakarių
Matomumas 10 km arba daugiau
Išsisklaidę debesys ne aukštis 2000 ft
Laikinai
nuo 16 metu 16 UTC su 16 metu 24 UTC
Matomumas: 4000 m
Išsisklaidę debesys ne aukštis 2000 ft
Mažai debesys ne aukštis 3300 ft, Liūtiniai kamuoliniai debesys.
perkūnija, lietus

TAF: DFFD 161100Z 1612/1718 20008KT 9999 SCT020 TEMPO 1616/1624 4000 TS SHRA SCT020 FEW033CB

Orai ataskaitas ir orų prognozės (METAR, TAF).

turimą stotys yra geltonos ir raudonos taškus žemėlapyje.

Perkelti pele per norėdami pamatyti stoties vardą.

Tada spustelėkite, norėdami matyti oro stebėjimo ir prognozės.

Norėdami pakeisti žemėlapį: spustelėkite ant žalios mygtukų su juodo kryžiaus žemyn,; žalią mygtuką su brūkšneliu, jei norite nutolinti; arba žalių rodyklių gretimoms žemėlapius.


METAR-TAF: